Time;durP1;ratioP1;P1;durP2;ratioP2;P2;SDS_P1;SDS_P2;PMS_P1;PMS_P2;Temp;Humidity;BMP_temperature;BMP_pressure;BME280_temperature;BME280_humidity;BME280_pressure;Samples;Min_cycle;Max_cycle;Signal;HPM_P1;HPM_P2
2022/03/04 00:02:05;;;;;;;27.70;15.02;;;;;;;-144.65;100.00;64500.88;5092142;28;20050;-75
2022/03/04 00:04:32;;;;;;;34.13;15.73;;;;;;;-144.65;100.00;64500.88;5091173;28;20055;-75
2022/03/04 00:06:57;;;;;;;29.23;14.88;;;;;;;-144.65;100.00;64500.88;5092346;28;20476;-75
2022/03/04 00:09:22;;;;;;;29.67;14.68;;;;;;;-144.65;100.00;64500.88;5091916;28;20020;-75
2022/03/04 00:11:48;;;;;;;32.22;15.27;;;;;;;-144.65;100.00;64500.88;5090888;28;20031;-75
2022/03/04 00:14:14;;;;;;;29.80;14.98;;;;;;;-144.65;100.00;64500.88;5092530;28;20069;-75
2022/03/04 00:16:39;;;;;;;30.50;14.70;;;;;;;-144.65;100.00;64500.88;5093674;28;20032;-75
2022/03/04 00:19:09;;;;;;;33.38;16.92;;;;;;;-144.65;100.00;64500.88;5085624;28;20020;-74
2022/03/04 00:21:41;;;;;;;29.40;15.13;;;;;;;-144.65;100.00;64500.88;5089466;28;20067;-75
2022/03/04 00:24:08;;;;;;;32.35;15.77;;;;;;;-144.65;100.00;64500.88;5091814;28;20020;-75
2022/03/04 00:26:34;;;;;;;35.88;16.88;;;;;;;-144.65;100.00;64500.88;5091640;28;20031;-75
2022/03/04 00:29:00;;;;;;;32.65;16.67;;;;;;;-144.65;100.00;64500.88;5088916;28;20035;-75
2022/03/04 00:31:25;;;;;;;32.10;15.93;;;;;;;-144.65;100.00;64500.88;5089273;28;20020;-74
2022/03/04 00:33:51;;;;;;;35.13;17.05;;;;;;;-144.65;100.00;64500.88;5084396;28;20036;-75
2022/03/04 00:36:17;;;;;;;35.83;16.40;;;;;;;-144.65;100.00;64500.88;5091384;28;20034;-75
2022/03/04 00:38:43;;;;;;;33.97;16.35;;;;;;;-144.65;100.00;64500.88;5091962;28;20388;-75
2022/03/04 00:41:08;;;;;;;32.50;16.20;;;;;;;-144.65;100.00;64500.88;5091259;28;20436;-75
2022/03/04 00:43:34;;;;;;;37.40;16.05;;;;;;;-144.65;100.00;64500.88;5092075;28;20028;-75
2022/03/04 00:46:00;;;;;;;33.03;15.20;;;;;;;-144.65;100.00;64500.88;5091138;28;20039;-75
2022/03/04 00:48:25;;;;;;;30.88;15.63;;;;;;;-144.65;100.00;64500.88;5090124;28;20020;-75
2022/03/04 00:50:51;;;;;;;33.30;16.38;;;;;;;-144.65;100.00;64500.88;5084169;28;20057;-75
2022/03/04 00:53:18;;;;;;;31.13;15.95;;;;;;;-144.65;100.00;64500.88;5072089;28;20074;-76
2022/03/04 00:55:43;;;;;;;32.30;16.08;;;;;;;-144.65;100.00;64500.88;5071942;28;20116;-76
2022/03/04 00:58:09;;;;;;;29.50;15.18;;;;;;;-144.65;100.00;64500.88;5072240;28;20115;-75
2022/03/04 01:00:36;;;;;;;30.15;16.00;;;;;;;-144.65;100.00;64500.88;5072032;28;20073;-75
2022/03/04 01:03:02;;;;;;;32.22;16.33;;;;;;;-144.65;100.00;64500.88;5071914;28;20036;-76
2022/03/04 01:05:28;;;;;;;32.53;16.05;;;;;;;-144.65;100.00;64500.88;5071948;28;20481;-76
2022/03/04 01:07:53;;;;;;;32.88;14.70;;;;;;;-144.65;100.00;64500.88;5072055;28;20064;-75
2022/03/04 01:10:19;;;;;;;33.72;15.70;;;;;;;-144.65;100.00;64500.88;5071664;28;20190;-76
2022/03/04 01:12:45;;;;;;;33.47;16.52;;;;;;;-144.65;100.00;64500.88;5071909;28;20461;-76
2022/03/04 01:15:11;;;;;;;30.70;15.73;;;;;;;-144.65;100.00;64500.88;5070747;28;20037;-77
2022/03/04 01:17:37;;;;;;;28.92;14.18;;;;;;;-144.65;100.00;64500.88;5071791;28;20120;-76
2022/03/04 01:20:04;;;;;;;30.42;14.70;;;;;;;-144.65;100.00;64500.88;5071698;28;20115;-76
2022/03/04 01:22:29;;;;;;;28.88;15.30;;;;;;;-144.65;100.00;64500.88;5071418;28;20016;-76
2022/03/04 01:24:55;;;;;;;27.23;14.88;;;;;;;-144.65;100.00;64500.88;5071727;28;20374;-76
2022/03/04 01:27:20;;;;;;;31.10;15.45;;;;;;;-144.65;100.00;64500.88;5071233;28;20024;-76
2022/03/04 01:29:46;;;;;;;30.75;16.15;;;;;;;-144.65;100.00;64500.88;5071493;28;20043;-76
2022/03/04 01:32:11;;;;;;;35.88;16.20;;;;;;;-144.65;100.00;64500.88;5071419;28;20032;-76
2022/03/04 01:34:37;;;;;;;32.38;15.00;;;;;;;-144.65;100.00;64500.88;5071134;28;20027;-76
2022/03/04 01:37:03;;;;;;;30.40;15.23;;;;;;;-144.65;100.00;64500.88;5071278;28;20058;-76
2022/03/04 01:39:29;;;;;;;30.98;15.38;;;;;;;-144.65;100.00;64500.88;5071525;28;20081;-77
2022/03/04 01:41:55;;;;;;;28.10;15.02;;;;;;;-144.65;100.00;64500.88;5071220;28;20028;-76
2022/03/04 01:44:20;;;;;;;33.80;15.52;;;;;;;-144.65;100.00;64500.88;5071165;28;20056;-76
2022/03/04 01:46:46;;;;;;;33.35;15.07;;;;;;;-144.65;100.00;64500.88;5071113;28;20024;-76
2022/03/04 01:49:11;;;;;;;30.15;15.57;;;;;;;-144.65;100.00;64500.88;5071835;28;20477;-77
2022/03/04 01:51:37;;;;;;;30.48;15.68;;;;;;;-144.65;100.00;64500.88;5074033;28;20024;-76
2022/03/04 01:54:03;;;;;;;31.75;16.40;;;;;;;-144.65;100.00;64500.88;5091518;28;20031;-75
2022/03/04 01:56:29;;;;;;;32.63;16.05;;;;;;;-144.65;100.00;64500.88;5090771;28;20061;-75
2022/03/04 01:58:54;;;;;;;33.50;17.20;;;;;;;-144.65;100.00;64500.88;5085241;28;20120;-74
2022/03/04 02:01:20;;;;;;;32.33;15.20;;;;;;;-144.65;100.00;64500.88;5079919;28;20075;-75
2022/03/04 02:03:46;;;;;;;35.72;16.42;;;;;;;-144.65;100.00;64500.88;5090514;28;20473;-75
2022/03/04 02:06:11;;;;;;;35.38;16.25;;;;;;;-144.65;100.00;64500.88;5071731;28;20015;-75
2022/03/04 02:08:37;;;;;;;40.58;17.02;;;;;;;-144.65;100.00;64500.88;5071143;28;20484;-75
2022/03/04 02:11:02;;;;;;;39.83;18.48;;;;;;;-144.65;100.00;64500.88;5071035;28;20016;-74
2022/03/04 02:13:28;;;;;;;35.33;17.73;;;;;;;-144.65;100.00;64500.88;5070615;28;20037;-74
2022/03/04 02:15:53;;;;;;;38.90;19.20;;;;;;;-144.65;100.00;64500.88;5070428;28;20037;-75
2022/03/04 02:18:19;;;;;;;44.08;19.25;;;;;;;-144.65;100.00;64500.88;5087077;28;20059;-74
2022/03/04 02:20:47;;;;;;;44.28;19.38;;;;;;;-144.65;100.00;64500.88;5090441;28;20089;-75
2022/03/04 02:23:13;;;;;;;41.20;18.38;;;;;;;-144.65;100.00;64500.88;5090854;28;20612;-75
2022/03/04 02:25:41;;;;;;;49.28;21.98;;;;;;;-144.65;100.00;64500.88;5090542;28;20024;-75
2022/03/04 02:28:06;;;;;;;63.00;27.10;;;;;;;-144.65;100.00;64500.88;5090619;28;20024;-75
2022/03/04 02:30:32;;;;;;;63.78;25.85;;;;;;;-144.65;100.00;64500.88;5090586;28;20035;-75
2022/03/04 02:32:57;;;;;;;56.60;23.63;;;;;;;-144.65;100.00;64500.88;5090162;28;20028;-74
2022/03/04 02:35:23;;;;;;;58.85;24.00;;;;;;;-144.65;100.00;64500.88;5090412;28;20027;-75
2022/03/04 02:37:48;;;;;;;55.65;21.88;;;;;;;-144.65;100.00;64500.88;5090855;28;20031;-74
2022/03/04 02:40:14;;;;;;;55.40;21.10;;;;;;;-144.65;100.00;64500.88;5091928;28;20028;-75
2022/03/04 02:42:39;;;;;;;52.50;22.52;;;;;;;-144.65;100.00;64500.88;5090753;28;20165;-74
2022/03/04 02:45:05;;;;;;;46.08;21.02;;;;;;;-144.65;100.00;64500.88;5090458;28;20039;-75
2022/03/04 02:47:31;;;;;;;51.58;21.08;;;;;;;-144.65;100.00;64500.88;5090212;28;20024;-75
2022/03/04 02:49:56;;;;;;;54.58;22.42;;;;;;;-144.65;100.00;64500.88;5090432;28;20111;-75
2022/03/04 02:52:21;;;;;;;67.18;27.15;;;;;;;-144.65;100.00;64500.88;5088976;28;20389;-75
2022/03/04 02:54:47;;;;;;;75.50;29.48;;;;;;;-144.65;100.00;64500.88;5073622;28;20020;-74
2022/03/04 02:57:12;;;;;;;101.13;32.47;;;;;;;-144.65;100.00;64500.88;5069702;28;20032;-74
2022/03/04 02:59:38;;;;;;;87.68;34.17;;;;;;;-144.65;100.00;64500.88;5069940;28;20048;-74
2022/03/04 03:02:03;;;;;;;88.18;31.27;;;;;;;-144.65;100.00;64500.88;5070007;28;20021;-75
2022/03/04 03:04:29;;;;;;;90.28;30.65;;;;;;;-144.65;100.00;64500.88;5070796;28;20028;-74
2022/03/04 03:06:54;;;;;;;77.15;27.55;;;;;;;-144.65;100.00;64500.88;5070432;28;20020;-75
2022/03/04 03:09:19;;;;;;;70.38;26.02;;;;;;;-144.65;100.00;64500.88;5070793;28;20034;-75
2022/03/04 03:11:45;;;;;;;67.68;25.85;;;;;;;-144.65;100.00;64500.88;5070287;28;20040;-75
2022/03/04 03:14:10;;;;;;;56.22;24.17;;;;;;;-144.65;100.00;64500.88;5070065;28;20067;-75
2022/03/04 03:16:36;;;;;;;59.95;24.08;;;;;;;-144.65;100.00;64500.88;5069616;28;20078;-75
2022/03/04 03:19:03;;;;;;;36.03;16.88;;;;;;;-144.65;100.00;64500.88;5069863;28;20036;-75
2022/03/04 03:21:28;;;;;;;38.30;18.38;;;;;;;-144.65;100.00;64500.88;5069850;28;20040;-75
2022/03/04 03:23:53;;;;;;;37.65;18.58;;;;;;;-144.65;100.00;64500.88;5081037;28;20477;-75
2022/03/04 03:26:19;;;;;;;45.28;18.75;;;;;;;-144.65;100.00;64500.88;5089879;28;20035;-75
2022/03/04 03:28:44;;;;;;;42.85;18.70;;;;;;;-144.65;100.00;64500.88;5089312;28;20030;-74
2022/03/04 03:31:09;;;;;;;48.10;19.83;;;;;;;-144.65;100.00;64500.88;5089336;28;20031;-74
2022/03/04 03:33:37;;;;;;;50.33;20.38;;;;;;;-144.65;100.00;64500.88;5089820;28;20422;-75
2022/03/04 03:36:03;;;;;;;50.28;21.35;;;;;;;-144.65;100.00;64500.88;5089898;28;20149;-75
2022/03/04 03:38:29;;;;;;;48.63;22.02;;;;;;;-144.65;100.00;64500.88;5089025;28;20107;-74
2022/03/04 03:40:54;;;;;;;45.70;20.40;;;;;;;-144.65;100.00;64500.88;5089923;28;20111;-74
2022/03/04 03:43:19;;;;;;;49.55;20.83;;;;;;;-144.65;100.00;64500.88;5089893;28;20052;-74
2022/03/04 03:45:45;;;;;;;48.97;21.88;;;;;;;-144.65;100.00;64500.88;5092106;28;20054;-75
2022/03/04 03:48:10;;;;;;;50.83;20.75;;;;;;;-144.65;100.00;64500.88;5093397;28;20035;-75
2022/03/04 03:50:38;;;;;;;46.45;19.92;;;;;;;-144.65;100.00;64500.88;5093367;28;20111;-75
2022/03/04 03:53:04;;;;;;;51.90;22.20;;;;;;;-144.65;100.00;64500.88;5093216;28;20499;-74
2022/03/04 03:55:29;;;;;;;52.85;21.13;;;;;;;-144.65;100.00;64500.88;5093022;28;20035;-74
2022/03/04 03:57:54;;;;;;;46.00;19.92;;;;;;;-144.65;100.00;64500.88;5093370;28;20035;-75
2022/03/04 04:00:20;;;;;;;46.03;18.17;;;;;;;-144.65;100.00;64500.88;5094031;28;20046;-74
2022/03/04 04:02:45;;;;;;;42.45;18.60;;;;;;;-144.65;100.00;64500.88;5094759;28;20468;-75
2022/03/04 04:05:14;;;;;;;41.10;17.60;;;;;;;-144.65;100.00;64500.88;5094288;28;20057;-75
2022/03/04 04:07:39;;;;;;;38.78;17.65;;;;;;;-144.65;100.00;64500.88;5093710;28;20029;-74
2022/03/04 04:10:05;;;;;;;38.38;17.15;;;;;;;-144.65;100.00;64500.88;5093463;28;20395;-75
2022/03/04 04:12:31;;;;;;;42.72;18.05;;;;;;;-144.65;100.00;64500.88;5093089;28;20032;-74
2022/03/04 04:14:56;;;;;;;39.78;17.60;;;;;;;-144.65;100.00;64500.88;5093278;28;20020;-75
2022/03/04 04:17:22;;;;;;;42.10;16.80;;;;;;;-144.65;100.00;64500.88;5092782;28;20070;-75
2022/03/04 04:19:48;;;;;;;30.27;14.80;;;;;;;-144.65;100.00;64500.88;5092952;28;20052;-74
2022/03/04 04:22:13;;;;;;;30.23;15.65;;;;;;;-144.65;100.00;64500.88;5091862;28;20034;-75
2022/03/04 04:24:39;;;;;;;35.88;16.45;;;;;;;-144.65;100.00;64500.88;5093282;28;20035;-75
2022/03/04 04:27:04;;;;;;;35.80;16.75;;;;;;;-144.65;100.00;64500.88;5093054;28;20028;-75
2022/03/04 04:29:30;;;;;;;34.20;16.35;;;;;;;-144.65;100.00;64500.88;5092723;28;20016;-75
2022/03/04 04:31:55;;;;;;;34.65;15.45;;;;;;;-144.65;100.00;64500.88;5092606;28;20548;-75
2022/03/04 04:34:20;;;;;;;35.97;16.85;;;;;;;-144.65;100.00;64500.88;5092759;28;20024;-74
2022/03/04 04:36:46;;;;;;;36.45;17.02;;;;;;;-144.65;100.00;64500.88;5092715;28;20106;-75
2022/03/04 04:39:11;;;;;;;35.63;16.63;;;;;;;-144.65;100.00;64500.88;5093098;28;20376;-74
2022/03/04 04:41:37;;;;;;;32.97;16.63;;;;;;;-144.65;100.00;64500.88;5092900;28;20024;-75
2022/03/04 04:44:02;;;;;;;43.10;17.35;;;;;;;-144.65;100.00;64500.88;5091610;28;20560;-76
2022/03/04 04:46:28;;;;;;;39.38;17.20;;;;;;;-144.65;100.00;64500.88;5091587;28;20087;-75
2022/03/04 04:48:53;;;;;;;38.72;16.80;;;;;;;-144.65;100.00;64500.88;5092766;28;20460;-75
2022/03/04 04:51:19;;;;;;;33.70;16.73;;;;;;;-144.65;100.00;64500.88;5092501;28;20039;-74
2022/03/04 04:53:44;;;;;;;34.97;17.17;;;;;;;-144.65;100.00;64500.88;5093169;28;20143;-75
2022/03/04 04:56:10;;;;;;;36.78;16.60;;;;;;;-144.65;100.00;64500.88;5088186;28;20155;-75
2022/03/04 04:58:35;;;;;;;38.50;17.70;;;;;;;-144.65;100.00;64500.88;5082697;28;20390;-75
2022/03/04 05:01:01;;;;;;;38.20;17.45;;;;;;;-144.65;100.00;64500.88;5071578;28;20138;-74
2022/03/04 05:03:27;;;;;;;36.33;17.13;;;;;;;-144.65;100.00;64500.88;5085003;28;20027;-75
2022/03/04 05:05:53;;;;;;;39.10;17.23;;;;;;;-144.65;100.00;64500.88;5093322;28;20028;-76
2022/03/04 05:08:20;;;;;;;44.65;18.48;;;;;;;-144.65;100.00;64500.88;5093951;28;20381;-75
2022/03/04 05:10:46;;;;;;;37.08;17.42;;;;;;;-144.65;100.00;64500.88;5091929;28;20024;-75
2022/03/04 05:13:12;;;;;;;35.00;17.08;;;;;;;-144.65;100.00;64500.88;5091827;28;20465;-75
2022/03/04 05:15:38;;;;;;;40.60;17.25;;;;;;;-144.65;100.00;64500.88;5078244;28;20024;-76
2022/03/04 05:18:04;;;;;;;34.50;16.52;;;;;;;-144.65;100.00;64500.88;5071414;28;20527;-75
2022/03/04 05:20:30;;;;;;;31.73;16.17;;;;;;;-144.65;100.00;64500.88;5071594;28;20047;-75
2022/03/04 05:22:55;;;;;;;34.08;16.15;;;;;;;-144.65;100.00;64500.88;5071301;28;20553;-75
2022/03/04 05:25:21;;;;;;;32.20;16.33;;;;;;;-144.65;100.00;64500.88;5071074;28;20046;-75
2022/03/04 05:27:46;;;;;;;38.28;16.27;;;;;;;-144.65;100.00;64500.88;5071317;28;20036;-75
2022/03/04 05:30:12;;;;;;;36.58;16.33;;;;;;;-144.65;100.00;64500.88;5070983;28;20063;-75
2022/03/04 05:32:38;;;;;;;47.05;18.63;;;;;;;-144.65;100.00;64500.88;5071222;28;20044;-75
2022/03/04 05:35:05;;;;;;;44.90;18.25;;;;;;;-144.65;100.00;64500.88;5070936;28;20024;-75
2022/03/04 05:37:31;;;;;;;42.78;17.75;;;;;;;-144.65;100.00;64500.88;5070936;28;20493;-75
2022/03/04 05:39:56;;;;;;;38.53;17.33;;;;;;;-144.65;100.00;64500.88;5071483;28;20032;-75
2022/03/04 05:42:22;;;;;;;38.13;18.73;;;;;;;-144.65;100.00;64500.88;5071031;28;20033;-75
2022/03/04 05:44:47;;;;;;;37.50;17.38;;;;;;;-144.65;100.00;64500.88;5070895;28;20025;-75
2022/03/04 05:47:12;;;;;;;40.75;18.13;;;;;;;-144.65;100.00;64500.88;5070705;28;20182;-75
2022/03/04 05:49:38;;;;;;;39.20;18.10;;;;;;;-144.65;100.00;64500.88;5072142;28;20069;-75
2022/03/04 05:52:04;;;;;;;36.92;17.77;;;;;;;-144.65;100.00;64500.88;5082116;28;20020;-75
2022/03/04 05:54:29;;;;;;;38.88;18.65;;;;;;;-144.65;100.00;64500.88;5091118;28;20042;-75
2022/03/04 05:56:55;;;;;;;44.60;18.83;;;;;;;-144.65;100.00;64500.88;5090948;28;20370;-75
2022/03/04 05:59:21;;;;;;;34.42;18.13;;;;;;;-144.65;100.00;64500.88;5090990;28;20032;-75
2022/03/04 06:01:46;;;;;;;42.97;19.92;;;;;;;-144.65;100.00;64500.88;5091170;28;20043;-75
2022/03/04 06:04:12;;;;;;;42.33;19.75;;;;;;;-144.65;100.00;64500.88;5090420;28;20024;-76
2022/03/04 06:06:38;;;;;;;40.65;19.40;;;;;;;-144.65;100.00;64500.88;5092098;28;20059;-76
2022/03/04 06:09:03;;;;;;;44.90;18.55;;;;;;;-144.65;100.00;64500.88;5090853;28;20048;-78
2022/03/04 06:11:28;;;;;;;44.08;19.85;;;;;;;-144.65;100.00;64500.88;5092408;28;20024;-79
2022/03/04 06:13:54;;;;;;;38.20;19.35;;;;;;;-144.65;100.00;64500.88;5092635;28;20020;-77
2022/03/04 06:16:22;;;;;;;38.88;17.80;;;;;;;-144.65;100.00;64500.88;5092865;28;20484;-77
2022/03/04 06:18:47;;;;;;;42.63;18.58;;;;;;;-144.65;100.00;64500.88;5097461;28;20087;-79
2022/03/04 06:21:14;;;;;;;36.22;18.23;;;;;;;-144.65;100.00;64500.88;5092938;28;20476;-85
2022/03/04 06:23:40;;;;;;;44.20;19.83;;;;;;;-144.65;100.00;64500.88;5097908;28;20028;-76
2022/03/04 06:26:06;;;;;;;39.72;19.70;;;;;;;-144.65;100.00;64500.88;5092267;28;20362;-86
2022/03/04 06:28:31;;;;;;;40.10;19.27;;;;;;;-144.65;100.00;64500.88;5097329;28;20020;-84
2022/03/04 06:30:58;;;;;;;47.67;20.55;;;;;;;-144.65;100.00;64500.88;5089509;28;20027;-82
2022/03/04 06:33:32;;;;;;;38.00;18.45;;;;;;;-144.65;100.00;64500.88;5086664;28;20496;-77
2022/03/04 06:36:12;;;;;;;40.30;18.45;;;;;;;-144.65;100.00;64500.88;5086780;28;20864;-76
2022/03/04 06:38:41;;;;;;;40.78;19.30;;;;;;;-144.65;100.00;64500.88;5093082;28;20040;-82
2022/03/04 06:41:06;;;;;;;41.13;18.45;;;;;;;-144.65;100.00;64500.88;5082933;28;20031;-77
2022/03/04 06:43:32;;;;;;;42.88;18.25;;;;;;;-144.65;100.00;64500.88;5088134;28;20032;-75
2022/03/04 06:46:09;;;;;;;47.70;17.73;;;;;;;-144.65;100.00;64500.88;5089679;28;20072;-85
2022/03/04 06:48:43;;;;;;;38.92;17.45;;;;;;;-144.65;100.00;64500.88;5194729;22;20049;-78
2022/03/04 06:54:07;;;;;;;44.63;17.42;;;;;;;-144.65;100.00;64500.88;5098303;22;20451;-82
2022/03/04 06:56:32;;;;;;;42.38;17.27;;;;;;;-144.65;100.00;64500.88;5107792;28;20081;-82
2022/03/04 06:58:58;;;;;;;42.83;17.95;;;;;;;-144.65;100.00;64500.88;5093672;28;20404;-78
2022/03/04 07:01:24;;;;;;;39.20;18.58;;;;;;;-144.65;100.00;64500.88;5107691;28;20384;-82
2022/03/04 07:03:50;;;;;;;34.35;18.23;;;;;;;-144.65;100.00;64500.88;5091916;28;20751;-87
2022/03/04 07:06:18;;;;;;;36.97;18.63;;;;;;;-144.65;100.00;64500.88;5091261;28;20024;-77
2022/03/04 07:08:43;;;;;;;42.88;18.42;;;;;;;-144.65;100.00;64500.88;5085014;28;20503;-81
2022/03/04 07:11:09;;;;;;;40.35;19.52;;;;;;;-144.65;100.00;64500.88;5088930;28;20028;-82
2022/03/04 07:13:35;;;;;;;34.33;18.17;;;;;;;-144.65;100.00;64500.88;5091319;28;20028;-79
2022/03/04 07:16:01;;;;;;;45.80;18.48;;;;;;;-144.65;100.00;64500.88;5090350;28;20020;-77
2022/03/04 07:18:30;;;;;;;39.65;18.48;;;;;;;-144.65;100.00;64500.88;5090095;28;20028;-77
2022/03/04 07:20:57;;;;;;;35.55;17.67;;;;;;;-144.65;100.00;64500.88;5091231;28;20028;-76
2022/03/04 07:23:23;;;;;;;40.90;19.67;;;;;;;-144.65;100.00;64500.88;5080302;28;20033;-76
2022/03/04 07:25:48;;;;;;;45.92;20.25;;;;;;;-144.65;100.00;64500.88;5073285;28;20521;-76
2022/03/04 07:28:14;;;;;;;42.10;19.98;;;;;;;-144.65;100.00;64500.88;5079329;28;20067;-75
2022/03/04 07:30:40;;;;;;;40.15;20.42;;;;;;;-144.65;100.00;64500.88;5089632;28;20043;-76
2022/03/04 07:33:05;;;;;;;40.88;19.25;;;;;;;-144.65;100.00;64500.88;5078938;28;20036;-75
2022/03/04 07:35:31;;;;;;;40.63;19.73;;;;;;;-144.65;100.00;64500.88;5092430;28;20055;-74
2022/03/04 07:37:56;;;;;;;43.97;20.45;;;;;;;-144.65;100.00;64500.88;5079337;28;20036;-74
2022/03/04 07:40:23;;;;;;;45.88;23.00;;;;;;;-144.65;100.00;64500.88;5082681;28;20025;-75
2022/03/04 07:42:49;;;;;;;47.83;22.13;;;;;;;-144.65;100.00;64500.88;5088182;28;20031;-74
2022/03/04 07:45:14;;;;;;;49.83;24.15;;;;;;;-144.65;100.00;64500.88;5081363;28;20028;-74
2022/03/04 07:47:41;;;;;;;49.05;23.27;;;;;;;-144.65;100.00;64500.88;5080661;28;20031;-75
2022/03/04 07:50:12;;;;;;;42.20;21.58;;;;;;;-144.65;100.00;64500.88;5088579;28;20028;-76
2022/03/04 07:52:38;;;;;;;43.13;20.27;;;;;;;-144.65;100.00;64500.88;5076303;28;20048;-79
2022/03/04 07:55:06;;;;;;;40.22;20.17;;;;;;;-144.65;100.00;64500.88;5085717;28;20023;-76
2022/03/04 07:57:31;;;;;;;36.92;19.38;;;;;;;-144.65;100.00;64500.88;5082144;28;20063;-76
2022/03/04 07:59:57;;;;;;;35.33;19.33;;;;;;;-144.65;100.00;64500.88;5092595;28;20070;-76
2022/03/04 08:02:23;;;;;;;31.90;19.52;;;;;;;-144.65;100.00;64500.88;5074480;28;20044;-75
2022/03/04 08:04:48;;;;;;;37.70;19.73;;;;;;;-144.65;100.00;64500.88;5091491;28;20024;-76
2022/03/04 08:07:14;;;;;;;46.55;20.50;;;;;;;-144.65;100.00;64500.88;5094149;28;20114;-76
2022/03/04 08:09:40;;;;;;;35.08;19.25;;;;;;;-144.65;100.00;64500.88;5096619;28;20028;-76
2022/03/04 08:12:07;;;;;;;38.90;20.15;;;;;;;-144.65;100.00;64500.88;5093568;28;20068;-76
2022/03/04 08:14:33;;;;;;;34.42;21.45;;;;;;;-144.65;100.00;64500.88;5092126;28;20111;-76
2022/03/04 08:16:58;;;;;;;30.65;20.10;;;;;;;-144.65;100.00;64500.88;5093527;28;20457;-76
2022/03/04 08:19:23;;;;;;;34.95;20.00;;;;;;;-144.65;100.00;64500.88;5092666;28;20024;-75
2022/03/04 08:21:49;;;;;;;34.83;20.88;;;;;;;-144.65;100.00;64500.88;5094191;28;20358;-75
2022/03/04 08:24:15;;;;;;;33.63;20.23;;;;;;;-144.65;100.00;64500.88;5101808;28;20057;-77
2022/03/04 08:26:41;;;;;;;31.00;19.33;;;;;;;-144.65;100.00;64500.88;5099937;28;20031;-76
2022/03/04 08:29:11;;;;;;;34.63;20.25;;;;;;;-144.65;100.00;64500.88;5092273;28;20032;-75
2022/03/04 08:31:37;;;;;;;32.20;18.67;;;;;;;-144.65;100.00;64500.88;5092070;28;20495;-76
2022/03/04 08:34:04;;;;;;;30.55;18.80;;;;;;;-144.65;100.00;64500.88;5092709;28;20032;-76
2022/03/04 08:36:29;;;;;;;27.38;15.52;;;;;;;-144.65;100.00;64500.88;5092703;28;20366;-76
2022/03/04 08:38:55;;;;;;;24.55;15.90;;;;;;;-144.65;100.00;64500.88;5093444;28;20027;-76
2022/03/04 08:41:21;;;;;;;30.65;16.33;;;;;;;-144.65;100.00;64500.88;5093027;28;20027;-76
2022/03/04 08:43:47;;;;;;;31.58;17.10;;;;;;;-144.65;100.00;64500.88;5092787;28;20019;-77
2022/03/04 08:46:14;;;;;;;28.10;17.23;;;;;;;-144.65;100.00;64500.88;5092942;28;20090;-77
2022/03/04 08:48:42;;;;;;;29.80;16.77;;;;;;;-144.65;100.00;64500.88;5092862;28;20078;-76
2022/03/04 08:51:08;;;;;;;26.85;16.25;;;;;;;-144.65;100.00;64500.88;5091383;28;20074;-76
2022/03/04 08:53:33;;;;;;;28.90;17.15;;;;;;;-144.65;100.00;64500.88;5092403;28;20052;-77
2022/03/04 08:55:59;;;;;;;35.40;16.60;;;;;;;-144.65;100.00;64500.88;5092255;28;20035;-76
2022/03/04 08:58:24;;;;;;;27.65;16.67;;;;;;;-144.65;100.00;64500.88;5092501;28;20541;-77
2022/03/04 09:00:50;;;;;;;27.65;17.23;;;;;;;-144.65;100.00;64500.88;5092580;28;20039;-76
2022/03/04 09:03:15;;;;;;;27.00;16.02;;;;;;;-144.65;100.00;64500.88;5093447;28;20056;-77
2022/03/04 09:05:41;;;;;;;28.90;15.65;;;;;;;-144.65;100.00;64500.88;5091845;28;20032;-77
2022/03/04 09:08:06;;;;;;;24.10;15.15;;;;;;;-144.65;100.00;64500.88;5092250;28;20105;-77
2022/03/04 09:10:32;;;;;;;27.08;16.75;;;;;;;-144.65;100.00;64500.88;5092724;28;20035;-76
2022/03/04 09:12:57;;;;;;;28.13;14.23;;;;;;;-144.65;100.00;64500.88;5092644;28;20093;-76
2022/03/04 09:15:23;;;;;;;23.15;14.40;;;;;;;-144.65;100.00;64500.88;5092221;28;20028;-76
2022/03/04 09:17:49;;;;;;;23.35;14.18;;;;;;;-144.65;100.00;64500.88;5092108;28;20028;-76
2022/03/04 09:20:14;;;;;;;22.70;13.10;;;;;;;-144.65;100.00;64500.88;5091954;28;20016;-77
2022/03/04 09:22:41;;;;;;;23.38;14.60;;;;;;;-144.65;100.00;64500.88;5092100;28;20529;-75
2022/03/04 09:25:07;;;;;;;24.30;14.13;;;;;;;-144.65;100.00;64500.88;5092053;28;20369;-76
2022/03/04 09:27:33;;;;;;;23.17;13.90;;;;;;;-144.65;100.00;64500.88;5073808;28;20040;-77
2022/03/04 09:29:58;;;;;;;23.90;14.48;;;;;;;-144.65;100.00;64500.88;5090778;28;20030;-76
2022/03/04 09:32:24;;;;;;;21.13;13.80;;;;;;;-144.65;100.00;64500.88;5091946;28;20020;-75
2022/03/04 09:34:50;;;;;;;31.17;14.38;;;;;;;-144.65;100.00;64500.88;5091766;28;20427;-75
2022/03/04 09:37:15;;;;;;;26.75;15.57;;;;;;;-144.65;100.00;64500.88;5091979;28;20020;-74
2022/03/04 09:39:41;;;;;;;23.13;15.05;;;;;;;-144.65;100.00;64500.88;5092227;28;20369;-76
2022/03/04 09:42:07;;;;;;;26.92;14.25;;;;;;;-144.65;100.00;64500.88;5091764;28;20024;-75
2022/03/04 09:44:33;;;;;;;22.88;14.05;;;;;;;-144.65;100.00;64500.88;5090587;28;20434;-75
2022/03/04 09:47:00;;;;;;;24.65;14.85;;;;;;;-144.65;100.00;64500.88;5092235;28;20024;-76
2022/03/04 09:49:35;;;;;;;24.23;15.15;;;;;;;-144.65;100.00;64500.88;5091843;28;20030;-75
2022/03/04 09:52:00;;;;;;;22.92;14.77;;;;;;;-144.65;100.00;64500.88;5091742;28;20034;-76
2022/03/04 09:54:28;;;;;;;27.00;15.60;;;;;;;-144.65;100.00;64500.88;5091785;28;20110;-75
2022/03/04 09:56:54;;;;;;;24.67;14.85;;;;;;;-144.65;100.00;64500.88;5091737;28;20043;-77
2022/03/04 09:59:20;;;;;;;24.15;15.05;;;;;;;-144.65;100.00;64500.88;5094609;28;20045;-76
2022/03/04 10:01:46;;;;;;;24.38;14.15;;;;;;;-144.65;100.00;64500.88;5092423;28;20032;-77
2022/03/04 10:04:12;;;;;;;20.58;13.85;;;;;;;-144.65;100.00;64500.88;5092344;28;20031;-75
2022/03/04 10:06:43;;;;;;;25.40;15.55;;;;;;;-144.65;100.00;64500.88;5091239;28;20028;-76
2022/03/04 10:09:09;;;;;;;22.50;15.20;;;;;;;-144.65;100.00;64500.88;5091745;28;20020;-76
2022/03/04 10:11:36;;;;;;;25.73;15.80;;;;;;;-144.65;100.00;64500.88;5091337;28;20475;-76
2022/03/04 10:14:13;;;;;;;23.50;15.38;;;;;;;-144.65;100.00;64500.88;5091427;28;20020;-76
2022/03/04 10:16:41;;;;;;;21.33;14.52;;;;;;;-144.65;100.00;64500.88;5091060;28;20040;-76
2022/03/04 10:19:13;;;;;;;22.70;15.25;;;;;;;-144.65;100.00;64500.88;5090890;28;20031;-76
2022/03/04 10:21:59;;;;;;;28.38;14.13;;;;;;;-144.65;100.00;64500.88;5090950;28;20485;-74
2022/03/04 10:24:36;;;;;;;25.90;15.25;;;;;;;-144.65;100.00;64500.88;5089707;28;20433;-75
2022/03/04 10:27:05;;;;;;;25.63;15.25;;;;;;;-144.65;100.00;64500.88;5092025;28;20024;-77
2022/03/04 10:29:34;;;;;;;24.30;14.90;;;;;;;-144.65;100.00;64500.88;5091120;28;20060;-76
2022/03/04 10:32:14;;;;;;;26.02;15.60;;;;;;;-144.65;100.00;64500.88;5091967;28;20089;-75
2022/03/04 10:35:06;;;;;;;27.60;15.68;;;;;;;-144.65;100.00;64500.88;5114268;28;20062;-77
2022/03/04 10:37:54;;;;;;;24.92;15.30;;;;;;;-144.65;100.00;64500.88;5096841;28;20075;-76
2022/03/04 10:40:24;;;;;;;23.58;14.75;;;;;;;-144.65;100.00;64500.88;5091182;28;20111;-77
2022/03/04 10:43:05;;;;;;;26.77;16.05;;;;;;;-144.65;100.00;64500.88;5091663;28;20016;-75
2022/03/04 10:45:36;;;;;;;25.15;15.98;;;;;;;-144.65;100.00;64500.88;5091808;28;20028;-76
2022/03/04 10:48:03;;;;;;;28.13;16.00;;;;;;;-144.65;100.00;64500.88;5092834;28;20028;-76
2022/03/04 10:50:33;;;;;;;26.95;16.05;;;;;;;-144.65;100.00;64500.88;5092684;28;20020;-75
2022/03/04 10:53:06;;;;;;;24.10;16.45;;;;;;;-144.65;100.00;64500.88;5091803;28;20047;-76
2022/03/04 10:55:42;;;;;;;27.20;14.95;;;;;;;-144.65;100.00;64500.88;5093970;28;20024;-76